aviador You're here:

CYBQ Decoded Metar

in
Report Time2017-06-25 01:00:00
UTC Time2017-06-25 02:04:02
Flight Rules vfr VFR
Wind340° at 04 kt
W.Decomp.*RWY 25: 4.0 kt RCW
W.Rank340° ranks 5
Current wind is below 340° avg. (8.1)
Visibility9999 m
Phenomena:N/A
Clouds:Few 065 Hf
Expected CloudBase > 3,600 ft AGL from Temp-Dew spread
CeilingNone
Temp15°C
Dew Point06°C (55% RH)
AAT12.6°C
QNH1019 hPa
Raw Report
METAR CYBQ 250100Z AUTO 34004KT 300V020 9SM FEW065 15/06 A3009 RMK
SLP202=

Extra information for CYBQ:More info

Social comments